createdAt,value
2018-03-27T00:02:04.245Z,99458.68
2018-03-27T00:04:31.832Z,99455.78
2018-03-27T00:06:59.413Z,99450.48
2018-03-27T00:09:27.034Z,99441.62
2018-03-27T00:11:54.714Z,99442.84
2018-03-27T00:14:22.310Z,99433.03
2018-03-27T00:16:49.942Z,99431.52
2018-03-27T00:19:17.531Z,99431.63
2018-03-27T00:21:45.138Z,99422.02
2018-03-27T00:24:12.772Z,99423.80
2018-03-27T00:26:52.080Z,99428.70
2018-03-27T00:29:31.507Z,99426.50
2018-03-27T00:32:10.698Z,99421.50
2018-03-27T00:34:49.999Z,99418.02
2018-03-27T00:37:29.308Z,99407.23
2018-03-27T00:40:08.579Z,99405.60
2018-03-27T00:42:43.700Z,99409.13
2018-03-27T00:45:11.327Z,99395.12
2018-03-27T00:47:38.943Z,99395.53
2018-03-27T00:50:06.534Z,99404.33
2018-03-27T00:52:34.180Z,99398.14
2018-03-27T00:55:01.775Z,99400.39
2018-03-27T00:57:29.371Z,99403.96
2018-03-27T00:59:57.009Z,99405.91
2018-03-27T01:02:24.616Z,99411.07
2018-03-27T01:04:52.215Z,99424.79
2018-03-27T01:07:19.841Z,99418.72
2018-03-27T01:09:47.438Z,99424.75
2018-03-27T01:12:15.046Z,99425.78
2018-03-27T01:14:42.695Z,99430.30
2018-03-27T01:17:10.288Z,99427.36
2018-03-27T01:19:37.867Z,99423.89
2018-03-27T01:22:05.509Z,99424.75
2018-03-27T01:24:33.095Z,99424.16
2018-03-27T01:27:00.682Z,99425.73
2018-03-27T01:29:28.306Z,99424.92
2018-03-27T01:31:55.900Z,99425.84
2018-03-27T01:34:23.497Z,99428.70
2018-03-27T01:36:51.122Z,99437.42
2018-03-27T01:39:18.713Z,99431.77
2018-03-27T01:41:46.298Z,99433.25
2018-03-27T01:44:13.907Z,99437.70
2018-03-27T01:46:41.490Z,99441.27
2018-03-27T01:49:09.076Z,99444.89
2018-03-27T01:51:36.707Z,99440.61
2018-03-27T01:54:04.301Z,99439.02
2018-03-27T01:56:31.895Z,99442.50
2018-03-27T01:58:59.534Z,99441.44
2018-03-27T02:01:27.131Z,99445.74
2018-03-27T02:03:54.729Z,99443.46
2018-03-27T02:06:22.357Z,99445.34
2018-03-27T02:08:49.947Z,99446.31
2018-03-27T02:11:22.969Z,99445.55
2018-03-27T02:13:56.023Z,99451.83
2018-03-27T02:16:29.307Z,99453.42
2018-03-27T02:19:02.372Z,99448.27
2018-03-27T02:21:29.397Z,99457.12
2018-03-27T02:23:59.432Z,99456.09
2018-03-27T02:26:27.018Z,99468.54
2018-03-27T02:28:54.650Z,99464.44
2018-03-27T02:31:22.243Z,99462.48
2018-03-27T02:33:49.842Z,99464.52
2018-03-27T02:36:17.481Z,99464.30
2018-03-27T02:38:45.069Z,99460.22
2018-03-27T02:41:12.660Z,99459.89
2018-03-27T02:43:40.324Z,99457.16
2018-03-27T02:46:07.952Z,99453.45
2018-03-27T02:48:35.593Z,99461.26
2018-03-27T02:51:03.254Z,99464.02
2018-03-27T02:53:30.880Z,99465.31
2018-03-27T02:55:58.517Z,99469.31
2018-03-27T02:58:26.188Z,99464.14
2018-03-27T03:00:53.842Z,99463.29
2018-03-27T03:03:21.510Z,99470.89
2018-03-27T03:05:49.138Z,99467.02
2018-03-27T03:08:16.723Z,99467.25
2018-03-27T03:10:44.350Z,99465.75
2018-03-27T03:13:11.979Z,99459.13
2018-03-27T03:15:39.562Z,99463.91
2018-03-27T03:18:07.153Z,99461.30
2018-03-27T03:20:34.764Z,99462.39
2018-03-27T03:23:02.354Z,99466.33
2018-03-27T03:25:29.929Z,99467.47
2018-03-27T03:27:57.557Z,99465.17
2018-03-27T03:30:25.151Z,99456.59
2018-03-27T03:32:52.755Z,99450.19
2018-03-27T03:35:20.379Z,99449.38
2018-03-27T03:37:47.958Z,99453.94
2018-03-27T03:40:15.555Z,99453.89
2018-03-27T03:42:43.214Z,99449.39
2018-03-27T03:45:10.787Z,99452.67
2018-03-27T03:47:38.369Z,99452.88
2018-03-27T03:50:05.998Z,99456.97
2018-03-27T03:52:33.582Z,99454.41
2018-03-27T03:55:01.181Z,99451.75
2018-03-27T03:57:28.813Z,99453.48
2018-03-27T03:59:56.393Z,99457.38
2018-03-27T04:02:23.978Z,99463.40
2018-03-27T04:04:51.605Z,99467.02
2018-03-27T04:07:19.189Z,99466.97
2018-03-27T04:09:46.768Z,99466.70
2018-03-27T04:12:14.396Z,99467.20
2018-03-27T04:14:41.977Z,99471.44
2018-03-27T04:17:09.564Z,99469.11
2018-03-27T04:19:37.174Z,99473.05
2018-03-27T04:22:04.800Z,99473.97
2018-03-27T04:24:32.405Z,99477.66
2018-03-27T04:26:59.994Z,99478.89
2018-03-27T04:29:27.619Z,99475.37
2018-03-27T04:31:55.203Z,99481.67
2018-03-27T04:34:22.793Z,99481.32
2018-03-27T04:36:50.414Z,99479.52
2018-03-27T04:39:18.039Z,99480.97
2018-03-27T04:41:45.631Z,99483.67
2018-03-27T04:44:13.260Z,99486.28
2018-03-27T04:46:40.855Z,99486.64
2018-03-27T04:49:08.439Z,99481.36
2018-03-27T04:51:36.118Z,99477.17
2018-03-27T04:54:03.718Z,99486.94
2018-03-27T04:56:31.302Z,99488.06
2018-03-27T04:58:58.931Z,99495.53
2018-03-27T05:01:26.525Z,99494.36
2018-03-27T05:03:54.115Z,99497.12
2018-03-27T05:06:21.742Z,99497.12
2018-03-27T05:08:49.331Z,99500.38
2018-03-27T05:11:16.929Z,99497.12
2018-03-27T05:13:44.608Z,99505.09
2018-03-27T05:16:12.185Z,99499.21
2018-03-27T05:18:39.771Z,99500.34
2018-03-27T05:21:07.391Z,99503.47
2018-03-27T05:23:34.998Z,99506.11
2018-03-27T05:26:02.588Z,99512.46
2018-03-27T05:28:30.234Z,99516.04
2018-03-27T05:30:57.818Z,99522.80
2018-03-27T05:33:25.406Z,99524.38
2018-03-27T05:35:53.056Z,99516.34
2018-03-27T05:38:20.654Z,99526.50
2018-03-27T05:40:48.228Z,99528.11
2018-03-27T05:43:15.850Z,99530.81
2018-03-27T05:45:43.437Z,99525.59
2018-03-27T05:48:11.032Z,99522.57
2018-03-27T05:50:38.666Z,99529.13
2018-03-27T05:53:06.253Z,99526.59
2018-03-27T05:55:33.839Z,99526.08
2018-03-27T05:58:01.480Z,99522.67
2018-03-27T06:00:29.118Z,99522.08
2018-03-27T06:02:56.710Z,99526.52
2018-03-27T06:05:24.330Z,99510.37
2018-03-27T06:07:51.917Z,99513.14
2018-03-27T06:10:19.496Z,99510.38
2018-03-27T06:12:47.131Z,99513.14
2018-03-27T06:15:14.718Z,99516.94
2018-03-27T06:17:42.317Z,99514.60
2018-03-27T06:20:09.961Z,99510.36
2018-03-27T06:22:37.546Z,99511.68
2018-03-27T06:25:05.137Z,99508.17
2018-03-27T06:27:32.757Z,99511.55
2018-03-27T06:30:00.387Z,99509.08
2018-03-27T06:32:27.976Z,99514.00
2018-03-27T06:34:55.609Z,99511.81
2018-03-27T06:37:23.190Z,99513.16
2018-03-27T06:39:50.769Z,99515.00
2018-03-27T06:42:18.418Z,99512.38
2018-03-27T06:44:46.011Z,99514.80
2018-03-27T06:47:13.595Z,99519.78
2018-03-27T06:49:41.224Z,99527.22
2018-03-27T06:52:08.799Z,99522.61
2018-03-27T06:54:36.389Z,99528.88
2018-03-27T06:57:04.013Z,99530.85
2018-03-27T06:59:31.582Z,99530.15
2018-03-27T07:01:59.178Z,99537.25
2018-03-27T07:04:26.802Z,99532.70
2018-03-27T07:06:54.432Z,99533.49
2018-03-27T07:09:22.036Z,99534.19
2018-03-27T07:11:49.668Z,99523.56
2018-03-27T07:14:17.261Z,99532.83
2018-03-27T07:16:44.859Z,99526.94
2018-03-27T07:19:12.488Z,99528.04
2018-03-27T07:21:40.078Z,99532.98
2018-03-27T07:24:07.758Z,99535.11
2018-03-27T07:26:35.382Z,99535.19
2018-03-27T07:29:02.970Z,99539.41
2018-03-27T07:31:30.564Z,99541.86
2018-03-27T07:33:58.190Z,99547.92
2018-03-27T07:36:25.781Z,99544.04
2018-03-27T07:38:53.374Z,99551.56
2018-03-27T07:41:21.014Z,99548.06
2018-03-27T07:43:48.596Z,99551.99
2018-03-27T07:46:16.168Z,99548.39
2018-03-27T07:48:43.794Z,99550.23
2018-03-27T07:51:11.382Z,99545.66
2018-03-27T07:53:38.952Z,99553.44
2018-03-27T07:56:06.581Z,99544.88
2018-03-27T07:58:34.174Z,99548.09
2018-03-27T08:01:01.760Z,99553.27
2018-03-27T08:03:29.425Z,99555.27
2018-03-27T08:05:57.028Z,99547.55
2018-03-27T08:08:24.641Z,99546.66
2018-03-27T08:10:52.272Z,99545.47
2018-03-27T08:13:19.855Z,99545.28
2018-03-27T08:15:47.439Z,99548.98
2018-03-27T08:18:15.066Z,99547.62
2018-03-27T08:20:42.662Z,99550.27
2018-03-27T08:23:10.338Z,99551.97
2018-03-27T08:25:38.058Z,99554.31
2018-03-27T08:28:05.671Z,99555.73
2018-03-27T08:30:33.338Z,99558.22
2018-03-27T08:33:00.948Z,99554.17
2018-03-27T08:35:28.530Z,99552.61
2018-03-27T08:37:56.193Z,99548.63
2018-03-27T08:40:23.813Z,99558.08
2018-03-27T08:42:51.428Z,99546.98
2018-03-27T08:45:19.019Z,99546.91
2018-03-27T08:47:46.657Z,99551.39
2018-03-27T08:50:14.331Z,99556.40
2018-03-27T08:52:41.969Z,99558.64
2018-03-27T08:55:09.661Z,99559.00
2018-03-27T08:57:37.266Z,99558.25
2018-03-27T09:00:04.900Z,99558.30
2018-03-27T09:02:32.541Z,99555.98
2018-03-27T09:05:00.142Z,99556.86
2018-03-27T09:07:27.758Z,99551.97
2018-03-27T09:09:55.373Z,99546.55
2018-03-27T09:12:22.993Z,99550.60
2018-03-27T09:14:50.577Z,99555.80
2018-03-27T09:17:18.191Z,99548.23
2018-03-27T09:19:45.774Z,99554.98
2018-03-27T09:22:13.342Z,99551.31
2018-03-27T09:24:40.958Z,99550.69
2018-03-27T09:27:08.532Z,99556.47
2018-03-27T09:29:36.109Z,99551.94
2018-03-27T09:32:03.748Z,99548.59
2018-03-27T09:34:31.351Z,99543.73
2018-03-27T09:36:58.930Z,99544.94
2018-03-27T09:39:26.523Z,99548.67
2018-03-27T09:41:54.094Z,99549.63
2018-03-27T09:44:21.677Z,99547.66
2018-03-27T09:46:49.291Z,99543.90
2018-03-27T09:49:16.858Z,99545.78
2018-03-27T09:51:44.433Z,99548.75
2018-03-27T09:54:12.065Z,99545.77
2018-03-27T09:56:39.632Z,99545.98
2018-03-27T09:59:07.214Z,99553.39
2018-03-27T10:01:39.656Z,99549.70
2018-03-27T10:04:07.249Z,99547.31
2018-03-27T10:06:34.821Z,99553.55
2018-03-27T10:09:02.445Z,99553.33
2018-03-27T10:11:30.766Z,99560.06
2018-03-27T10:13:58.346Z,99560.48
2018-03-27T10:16:25.963Z,99556.81
2018-03-27T10:18:53.550Z,99558.56
2018-03-27T10:21:21.125Z,99561.68
2018-03-27T10:23:48.737Z,99563.72
2018-03-27T10:26:16.305Z,99563.62
2018-03-27T10:28:44.795Z,99561.67
2018-03-27T10:31:12.502Z,99558.60
2018-03-27T10:33:40.077Z,99553.65
2018-03-27T10:36:07.706Z,99557.34
2018-03-27T10:38:36.114Z,99555.88
2018-03-27T10:41:03.691Z,99558.06
2018-03-27T10:43:31.283Z,99549.84
2018-03-27T10:45:58.912Z,99550.75
2018-03-27T10:48:26.478Z,99550.56
2018-03-27T10:50:54.055Z,99549.33
2018-03-27T10:53:21.672Z,99548.09
2018-03-27T10:55:49.233Z,99547.16
2018-03-27T10:58:16.795Z,99545.75
2018-03-27T11:00:44.415Z,99544.43
2018-03-27T11:03:11.980Z,99548.08
2018-03-27T11:05:39.574Z,99545.11
2018-03-27T11:08:07.203Z,99550.34
2018-03-27T11:10:34.780Z,99550.74
2018-03-27T11:13:02.370Z,99540.53
2018-03-27T11:15:30.009Z,99546.63
2018-03-27T11:17:57.571Z,99542.97
2018-03-27T11:20:25.141Z,99537.21
2018-03-27T11:22:52.749Z,99539.16
2018-03-27T11:25:20.345Z,99543.75
2018-03-27T11:27:47.942Z,99543.63
2018-03-27T11:30:15.552Z,99550.16
2018-03-27T11:32:43.126Z,99545.14
2018-03-27T11:35:10.703Z,99556.99
2018-03-27T11:37:38.316Z,99557.48
2018-03-27T11:40:05.996Z,99556.25
2018-03-27T11:42:33.604Z,99554.86
2018-03-27T11:45:01.223Z,99553.09
2018-03-27T11:47:28.793Z,99551.90
2018-03-27T11:49:56.365Z,99556.06
2018-03-27T11:52:23.977Z,99559.33
2018-03-27T11:54:51.588Z,99562.97
2018-03-27T11:57:19.158Z,99567.03
2018-03-27T11:59:46.768Z,99555.58
2018-03-27T12:02:14.394Z,99556.73
2018-03-27T12:04:41.989Z,99558.91
2018-03-27T12:07:09.662Z,99550.48
2018-03-27T12:09:37.242Z,99549.08
2018-03-27T12:12:04.827Z,99556.98
2018-03-27T12:14:32.441Z,99558.73
2018-03-27T12:17:00.026Z,99561.11
2018-03-27T12:19:27.600Z,99557.00
2018-03-27T12:21:55.210Z,99560.75
2018-03-27T12:24:22.795Z,99564.79
2018-03-27T12:26:50.408Z,99564.73
2018-03-27T12:29:18.018Z,99554.64
2018-03-27T12:31:45.632Z,99555.98
2018-03-27T12:34:13.240Z,99565.64
2018-03-27T12:36:40.861Z,99563.08
2018-03-27T12:39:08.441Z,99560.15
2018-03-27T12:41:36.011Z,99557.30
2018-03-27T12:44:03.627Z,99560.64
2018-03-27T12:46:31.202Z,99554.47
2018-03-27T12:48:58.778Z,99556.63
2018-03-27T12:51:26.414Z,99557.22
2018-03-27T12:53:53.984Z,99556.31
2018-03-27T12:56:21.569Z,99553.77
2018-03-27T12:58:49.197Z,99558.20
2018-03-27T13:01:16.779Z,99557.27
2018-03-27T13:03:44.361Z,99557.13
2018-03-27T13:06:11.982Z,99552.63
2018-03-27T13:08:39.562Z,99558.03
2018-03-27T13:11:07.144Z,99552.08
2018-03-27T13:13:34.759Z,99553.13
2018-03-27T13:16:02.338Z,99552.23
2018-03-27T13:18:29.930Z,99549.90
2018-03-27T13:20:57.549Z,99545.98
2018-03-27T13:23:25.142Z,99558.86
2018-03-27T13:25:52.738Z,99559.61
2018-03-27T13:28:20.366Z,99546.76
2018-03-27T13:30:47.960Z,99553.88
2018-03-27T13:33:15.544Z,99554.63
2018-03-27T13:35:43.213Z,99552.82
2018-03-27T13:38:10.803Z,99548.09
2018-03-27T13:40:38.392Z,99551.63
2018-03-27T13:43:06.007Z,99549.56
2018-03-27T13:45:33.610Z,99547.45
2018-03-27T13:48:01.195Z,99542.13
2018-03-27T13:50:28.822Z,99542.23
2018-03-27T13:52:56.416Z,99540.52
2018-03-27T13:55:24.006Z,99547.53
2018-03-27T13:57:51.633Z,99546.70
2018-03-27T14:00:19.250Z,99545.92
2018-03-27T14:02:46.839Z,99544.72
2018-03-27T14:05:14.551Z,99549.84
2018-03-27T14:07:42.130Z,99546.65
2018-03-27T14:10:09.712Z,99548.16
2018-03-27T14:12:37.326Z,99548.35
2018-03-27T14:15:04.909Z,99546.39
2018-03-27T14:17:32.501Z,99545.74
2018-03-27T14:20:00.136Z,99550.09
2018-03-27T14:22:27.740Z,99547.39
2018-03-27T14:24:55.326Z,99554.56
2018-03-27T14:27:22.960Z,99560.75
2018-03-27T14:29:50.547Z,99563.51
2018-03-27T14:32:18.130Z,99554.84
2018-03-27T14:34:45.747Z,99555.44
2018-03-27T14:37:13.383Z,99560.05
2018-03-27T14:39:40.963Z,99559.39
2018-03-27T14:42:08.588Z,99558.66
2018-03-27T14:44:36.217Z,99559.31
2018-03-27T14:47:03.798Z,99563.22
2018-03-27T14:49:31.428Z,99562.59
2018-03-27T14:51:59.059Z,99563.55
2018-03-27T14:54:26.668Z,99566.84
2018-03-27T14:56:54.300Z,99572.02
2018-03-27T14:59:21.884Z,99571.42
2018-03-27T15:01:49.467Z,99568.96
2018-03-27T15:04:17.145Z,99577.17
2018-03-27T15:06:44.738Z,99572.84
2018-03-27T15:09:12.399Z,99574.80
2018-03-27T15:11:40.014Z,99574.27
2018-03-27T15:14:07.589Z,99574.97
2018-03-27T15:16:35.182Z,99575.19
2018-03-27T15:19:02.800Z,99577.71
2018-03-27T15:21:30.397Z,99577.52
2018-03-27T15:23:57.991Z,99577.49
2018-03-27T15:26:25.606Z,99580.17
2018-03-27T15:28:53.180Z,99578.64
2018-03-27T15:31:20.770Z,99582.84
2018-03-27T15:33:48.387Z,99587.67
2018-03-27T15:36:15.984Z,99588.70
2018-03-27T15:38:43.571Z,99584.69
2018-03-27T15:41:11.198Z,99581.93
2018-03-27T15:43:38.856Z,99578.44
2018-03-27T15:46:06.515Z,99577.13
2018-03-27T15:48:34.135Z,99578.76
2018-03-27T15:51:01.738Z,99574.14
2018-03-27T15:53:29.321Z,99576.41
2018-03-27T15:55:56.938Z,99575.08
2018-03-27T15:58:24.520Z,99575.09
2018-03-27T16:00:52.134Z,99573.64
2018-03-27T16:03:19.942Z,99586.82
2018-03-27T16:05:47.570Z,99585.59
2018-03-27T16:08:15.171Z,99594.21
2018-03-27T16:10:42.800Z,99596.77
2018-03-27T16:13:10.399Z,99591.23
2018-03-27T16:15:37.984Z,99594.83
2018-03-27T16:18:05.619Z,99579.55
2018-03-27T16:20:33.283Z,99592.81
2018-03-27T16:23:00.865Z,99580.59
2018-03-27T16:25:28.523Z,99591.59
2018-03-27T16:27:56.170Z,99593.80
2018-03-27T16:30:23.754Z,99586.20
2018-03-27T16:32:51.381Z,99597.82
2018-03-27T16:35:18.963Z,99606.32
2018-03-27T16:37:46.538Z,99608.58
2018-03-27T16:40:14.162Z,99606.63
2018-03-27T16:42:41.745Z,99604.17
2018-03-27T16:45:09.325Z,99605.30
2018-03-27T16:47:36.953Z,99610.52
2018-03-27T16:50:04.538Z,99619.45
2018-03-27T16:52:32.130Z,99615.13
2018-03-27T16:54:59.777Z,99618.64
2018-03-27T16:57:27.382Z,99616.77
2018-03-27T16:59:54.983Z,99619.44
2018-03-27T17:02:22.602Z,99617.93
2018-03-27T17:04:50.166Z,99620.27
2018-03-27T17:07:20.821Z,99613.30
2018-03-27T17:09:48.444Z,99619.02
2018-03-27T17:12:16.184Z,99621.58
2018-03-27T17:14:43.757Z,99628.33
2018-03-27T17:17:11.371Z,99625.67
2018-03-27T17:19:38.951Z,99635.00
2018-03-27T17:22:06.550Z,99631.20
2018-03-27T17:24:34.164Z,99625.37
2018-03-27T17:27:01.739Z,99629.05
2018-03-27T17:29:29.316Z,99637.97
2018-03-27T17:31:56.921Z,99639.58
2018-03-27T17:34:24.619Z,99641.25
2018-03-27T17:36:52.211Z,99644.09
2018-03-27T17:39:19.832Z,99652.43
2018-03-27T17:41:47.414Z,99654.89
2018-03-27T17:44:15.707Z,99656.33
2018-03-27T17:46:43.313Z,99657.17
2018-03-27T17:49:10.898Z,99661.48
2018-03-27T17:51:38.482Z,99655.94
2018-03-27T17:54:06.288Z,99663.33
2018-03-27T17:56:33.885Z,99664.25
2018-03-27T17:59:01.486Z,99661.50
2018-03-27T18:01:29.129Z,99660.98
2018-03-27T18:03:56.708Z,99656.88
2018-03-27T18:06:24.330Z,99651.23
2018-03-27T18:08:51.984Z,99653.91
2018-03-27T18:11:19.559Z,99652.66
2018-03-27T18:13:47.160Z,99657.45
2018-03-27T18:16:14.776Z,99667.80
2018-03-27T18:18:42.397Z,99662.44
2018-03-27T18:21:09.987Z,99673.08
2018-03-27T18:23:37.596Z,99677.69
2018-03-27T18:26:05.152Z,99690.78
2018-03-27T18:28:32.715Z,99696.02
2018-03-27T18:31:00.352Z,99689.32
2018-03-27T18:33:27.929Z,99685.39
2018-03-27T18:35:55.499Z,99688.43
2018-03-27T18:38:23.100Z,99688.49
2018-03-27T18:40:50.670Z,99695.46
2018-03-27T18:43:18.238Z,99697.06
2018-03-27T18:45:45.852Z,99707.31
2018-03-27T18:48:13.414Z,99701.43
2018-03-27T18:50:41.014Z,99706.09
2018-03-27T18:53:08.628Z,99707.30
2018-03-27T18:55:36.211Z,99706.23
2018-03-27T18:58:03.790Z,99705.55
2018-03-27T19:00:31.407Z,99704.30
2018-03-27T19:02:59.019Z,99706.34
2018-03-27T19:05:26.598Z,99708.88
2018-03-27T19:07:54.250Z,99714.85
2018-03-27T19:10:21.825Z,99712.49
2018-03-27T19:12:49.394Z,99713.79
2018-03-27T19:15:17.005Z,99711.91
2018-03-27T19:17:44.583Z,99719.29
2018-03-27T19:20:12.171Z,99726.79
2018-03-27T19:22:39.782Z,99723.81
2018-03-27T19:25:07.368Z,99724.70
2018-03-27T19:27:34.958Z,99730.27
2018-03-27T19:30:02.584Z,99728.67
2018-03-27T19:32:30.175Z,99736.09
2018-03-27T19:34:57.761Z,99742.51
2018-03-27T19:37:25.386Z,99743.45
2018-03-27T19:39:52.980Z,99749.59
2018-03-27T19:42:20.629Z,99751.63
2018-03-27T19:44:48.256Z,99753.98
2018-03-27T19:47:15.938Z,99746.96
2018-03-27T19:49:43.535Z,99749.16
2018-03-27T19:52:11.183Z,99747.59
2018-03-27T19:54:38.784Z,99748.51
2018-03-27T19:57:06.383Z,99748.91
2018-03-27T19:59:34.010Z,99749.66
2018-03-27T20:02:01.723Z,99753.59
2018-03-27T20:04:29.358Z,99757.40
2018-03-27T20:06:56.981Z,99754.02
2018-03-27T20:09:24.623Z,99762.11
2018-03-27T20:11:52.198Z,99756.52
2018-03-27T20:14:19.849Z,99752.52
2018-03-27T20:16:47.456Z,99752.53
2018-03-27T20:19:15.085Z,99747.23
2018-03-27T20:21:42.720Z,99753.22
2018-03-27T20:24:10.314Z,99757.31
2018-03-27T20:26:37.908Z,99750.99
2018-03-27T20:29:05.535Z,99753.02
2018-03-27T20:31:33.165Z,99721.03
2018-03-27T20:34:00.779Z,99746.77
2018-03-27T20:36:28.368Z,99742.25
2018-03-27T20:38:56.003Z,99744.73
2018-03-27T20:41:23.602Z,99733.72
2018-03-27T20:43:51.199Z,99740.84
2018-03-27T20:46:18.818Z,99740.61
2018-03-27T20:48:46.465Z,99737.95
2018-03-27T20:51:14.062Z,99733.50
2018-03-27T20:53:41.694Z,99722.33
2018-03-27T20:56:09.283Z,99720.38
2018-03-27T20:58:36.872Z,99726.83
2018-03-27T21:01:04.507Z,99723.95
2018-03-27T21:03:32.102Z,99721.29
2018-03-27T21:05:59.694Z,99718.03
2018-03-27T21:08:27.335Z,99715.09
2018-03-27T21:10:54.938Z,99719.05
2018-03-27T21:13:22.532Z,99720.59
2018-03-27T21:15:50.199Z,99716.20
2018-03-27T21:18:17.835Z,99713.63
2018-03-27T21:20:45.439Z,99713.95
2018-03-27T21:23:13.072Z,99714.83
2018-03-27T21:25:40.670Z,99715.30
2018-03-27T21:28:08.260Z,99712.65
2018-03-27T21:30:35.884Z,99715.56
2018-03-27T21:33:03.478Z,99714.16
2018-03-27T21:35:31.435Z,99707.84
2018-03-27T21:37:59.057Z,99707.66
2018-03-27T21:40:26.641Z,99706.17
2018-03-27T21:42:54.241Z,99707.66
2018-03-27T21:45:21.883Z,99702.59
2018-03-27T21:47:49.496Z,99701.58
2018-03-27T21:50:17.094Z,99709.23
2018-03-27T21:52:44.753Z,99706.70
2018-03-27T21:55:12.354Z,99704.59
2018-03-27T21:57:39.952Z,99702.59
2018-03-27T22:00:09.257Z,99699.15
2018-03-27T22:02:36.844Z,99692.06
2018-03-27T22:05:04.436Z,99690.45
2018-03-27T22:07:32.046Z,99689.50
2018-03-27T22:09:59.650Z,99681.83
2018-03-27T22:12:27.240Z,99683.12
2018-03-27T22:14:54.874Z,99673.82
2018-03-27T22:17:22.468Z,99675.63
2018-03-27T22:19:50.070Z,99674.87
2018-03-27T22:22:17.709Z,99673.64
2018-03-27T22:24:45.306Z,99688.22
2018-03-27T22:27:12.915Z,99690.77
2018-03-27T22:29:40.545Z,99690.00
2018-03-27T22:32:08.145Z,99687.33
2018-03-27T22:34:35.744Z,99685.47
2018-03-27T22:37:03.371Z,99683.98
2018-03-27T22:39:30.980Z,99684.45
2018-03-27T22:41:58.567Z,99684.16
2018-03-27T22:44:26.202Z,99679.17
2018-03-27T22:46:53.782Z,99680.00
2018-03-27T22:49:21.397Z,99682.23
2018-03-27T22:51:49.057Z,99679.39
2018-03-27T22:54:16.660Z,99687.83
2018-03-27T22:56:44.258Z,99689.69
2018-03-27T22:59:11.884Z,99688.63
2018-03-27T23:01:39.482Z,99692.04
2018-03-27T23:04:07.082Z,99692.32
2018-03-27T23:06:34.750Z,99686.09
2018-03-27T23:09:02.337Z,99685.19
2018-03-27T23:11:29.922Z,99683.69
2018-03-27T23:13:57.546Z,99686.84
2018-03-27T23:16:25.180Z,99688.84
2018-03-27T23:18:52.814Z,99693.50
2018-03-27T23:21:20.498Z,99687.39
2018-03-27T23:23:48.094Z,99696.05
2018-03-27T23:26:15.690Z,99702.05
2018-03-27T23:28:43.327Z,99708.90
2018-03-27T23:31:10.916Z,99709.51
2018-03-27T23:33:38.511Z,99708.73
2018-03-27T23:36:06.167Z,99703.48
2018-03-27T23:38:33.824Z,99707.97
2018-03-27T23:41:01.438Z,99703.98
2018-03-27T23:43:29.055Z,99692.93
2018-03-27T23:45:56.673Z,99692.66
2018-03-27T23:48:24.262Z,99693.98
2018-03-27T23:50:51.918Z,99695.27
2018-03-27T23:53:19.515Z,99696.41
2018-03-27T23:55:47.115Z,99697.33
2018-03-27T23:58:14.751Z,99689.56
